Time;durP1;ratioP1;P1;durP2;ratioP2;P2;SDS_P1;SDS_P2;PMS_P1;PMS_P2;Temp;Humidity;BMP_temperature;BMP_pressure;BME280_temperature;BME280_humidity;BME280_pressure;Samples;Min_cycle;Max_cycle;Signal;HPM_P1;HPM_P2
2021/06/29 00:00:51;;;;;;;8.60;5.20;;;21.40;67.90;;;;;;5054542;28;20027;-75
2021/06/29 00:03:17;;;;;;;7.28;5.20;;;21.40;68.10;;;;;;5053379;28;20029;-75
2021/06/29 00:05:46;;;;;;;7.07;5.57;;;21.40;68.40;;;;;;5054481;28;20035;-75
2021/06/29 00:08:11;;;;;;;6.25;5.20;;;21.40;68.60;;;;;;5054831;28;20123;-75
2021/06/29 00:10:37;;;;;;;6.85;5.35;;;21.30;69.40;;;;;;5054317;28;20519;-77
2021/06/29 00:13:05;;;;;;;8.73;5.38;;;21.30;68.80;;;;;;5054859;28;20033;-76
2021/06/29 00:15:31;;;;;;;5.30;4.68;;;21.30;68.90;;;;;;5054594;28;20128;-75
2021/06/29 00:17:57;;;;;;;5.75;5.15;;;21.20;69.00;;;;;;5054632;28;20029;-75
2021/06/29 00:20:23;;;;;;;6.38;5.00;;;21.20;69.10;;;;;;5054293;28;20036;-75
2021/06/29 00:22:49;;;;;;;5.07;4.57;;;21.20;69.10;;;;;;5054111;28;20033;-75
2021/06/29 00:25:16;;;;;;;6.55;5.18;;;21.10;69.20;;;;;;5054268;28;20083;-76
2021/06/29 00:27:42;;;;;;;8.30;5.00;;;21.10;69.30;;;;;;5054496;28;20485;-75
2021/06/29 00:30:09;;;;;;;6.93;4.60;;;21.10;69.30;;;;;;5054199;28;20053;-75
2021/06/29 00:32:35;;;;;;;6.80;5.15;;;21.10;69.40;;;;;;5054125;28;20029;-75
2021/06/29 00:35:01;;;;;;;7.28;5.47;;;21.10;69.50;;;;;;5054396;28;20506;-74
2021/06/29 00:37:27;;;;;;;5.72;5.13;;;21.00;69.60;;;;;;5053847;28;20067;-75
2021/06/29 00:39:52;;;;;;;6.18;5.00;;;21.00;69.70;;;;;;5053630;28;20179;-75
2021/06/29 00:42:18;;;;;;;7.82;5.57;;;20.90;69.80;;;;;;5053963;28;20536;-75
2021/06/29 00:44:47;;;;;;;10.07;4.93;;;20.90;70.00;;;;;;5053773;28;20024;-75
2021/06/29 00:47:13;;;;;;;8.77;5.32;;;20.90;70.10;;;;;;5054144;28;20126;-75
2021/06/29 00:49:39;;;;;;;6.30;5.57;;;20.90;70.20;;;;;;5053798;28;20029;-75
2021/06/29 00:52:10;;;;;;;6.75;5.45;;;20.80;70.30;;;;;;5053820;28;20045;-75
2021/06/29 00:54:36;;;;;;;5.88;5.28;;;20.80;70.40;;;;;;5053731;28;20042;-75
2021/06/29 00:57:02;;;;;;;10.10;5.28;;;20.80;70.40;;;;;;5053516;28;20102;-75
2021/06/29 00:59:28;;;;;;;7.00;6.15;;;20.70;70.40;;;;;;5053887;28;20025;-75
2021/06/29 01:02:13;;;;;;;8.05;6.35;;;20.70;70.60;;;;;;5053053;28;20430;-75
2021/06/29 01:04:41;;;;;;;9.93;8.50;;;20.60;70.70;;;;;;5052401;28;20460;-75
2021/06/29 01:07:10;;;;;;;7.75;6.95;;;20.60;70.80;;;;;;5053886;28;20033;-76
2021/06/29 01:09:37;;;;;;;8.75;6.20;;;20.60;70.90;;;;;;5052360;28;20116;-76
2021/06/29 01:12:03;;;;;;;7.78;6.07;;;20.60;71.00;;;;;;5053902;28;20163;-75
2021/06/29 01:14:28;;;;;;;7.60;6.13;;;20.60;71.00;;;;;;5069027;28;20431;-75
2021/06/29 01:16:54;;;;;;;7.65;5.85;;;20.50;71.00;;;;;;5053636;28;20035;-75
2021/06/29 01:19:22;;;;;;;6.75;5.10;;;20.60;71.10;;;;;;5053686;28;20021;-75
2021/06/29 01:21:51;;;;;;;6.35;5.60;;;20.50;71.00;;;;;;5069035;28;20032;-75
2021/06/29 01:24:31;;;;;;;6.97;5.55;;;20.50;71.00;;;;;;5053617;28;20091;-75
2021/06/29 01:27:29;;;;;;;6.63;4.93;;;20.50;71.00;;;;;;5053502;28;20069;-75
2021/06/29 01:32:21;;;;;;;7.45;5.38;;;20.40;71.10;;;;;;5053576;28;20025;-75
2021/06/29 01:34:47;;;;;;;6.95;5.18;;;20.50;71.20;;;;;;5052321;28;20029;-75
2021/06/29 01:37:15;;;;;;;6.60;5.70;;;20.50;71.30;;;;;;5053470;28;20433;-76
2021/06/29 01:40:36;;;;;;;9.02;5.85;;;20.40;71.30;;;;;;5053217;28;20356;-76
2021/06/29 01:42:48;;;;;;;7.60;5.72;;;20.40;71.30;;;;;;5049821;28;20055;-76
2021/06/29 01:45:13;;;;;;;6.45;5.65;;;20.50;71.30;;;;;;5053234;28;20375;-75
2021/06/29 01:50:17;;;;;;;8.73;5.28;;;20.50;71.40;;;;;;5053190;28;20456;-75
2021/06/29 01:52:44;;;;;;;6.88;5.13;;;20.50;71.40;;;;;;5052774;28;20095;-76
2021/06/29 01:55:11;;;;;;;8.50;5.50;;;20.50;71.40;;;;;;5051537;28;20392;-77
2021/06/29 01:57:39;;;;;;;8.52;5.78;;;20.40;71.40;;;;;;5049235;28;20532;-76
2021/06/29 02:00:09;;;;;;;9.70;5.50;;;20.50;71.40;;;;;;5051805;28;20021;-75
2021/06/29 02:02:35;;;;;;;5.88;4.60;;;20.40;71.30;;;;;;5049079;28;20525;-74
2021/06/29 02:05:02;;;;;;;6.90;5.50;;;20.40;71.30;;;;;;5052060;28;20029;-75
2021/06/29 02:07:27;;;;;;;8.00;5.57;;;20.50;71.40;;;;;;5051650;28;20152;-77
2021/06/29 02:09:53;;;;;;;5.85;5.15;;;20.40;71.30;;;;;;5051324;28;20103;-77
2021/06/29 02:12:19;;;;;;;5.90;5.20;;;20.40;71.30;;;;;;5051592;28;20018;-75
2021/06/29 02:14:44;;;;;;;6.65;5.32;;;20.40;71.30;;;;;;5052882;28;20021;-75
2021/06/29 02:17:10;;;;;;;5.53;4.95;;;20.40;71.40;;;;;;5055098;28;20040;-76
2021/06/29 02:19:36;;;;;;;8.00;5.80;;;20.40;71.30;;;;;;5055490;28;20383;-75
2021/06/29 02:22:04;;;;;;;9.38;5.47;;;20.40;71.30;;;;;;5055842;28;20017;-76
2021/06/29 02:24:30;;;;;;;5.93;5.00;;;20.50;71.30;;;;;;5055407;28;20556;-77
2021/06/29 02:26:55;;;;;;;8.55;5.78;;;20.50;71.20;;;;;;5052612;28;20025;-74
2021/06/29 02:29:21;;;;;;;5.35;4.82;;;20.50;71.20;;;;;;5055039;28;20047;-76
2021/06/29 02:31:47;;;;;;;6.57;4.82;;;20.60;71.20;;;;;;5055016;28;20021;-74
2021/06/29 02:34:12;;;;;;;6.28;4.95;;;20.60;71.10;;;;;;5055163;28;20107;-75
2021/06/29 02:36:38;;;;;;;6.53;4.97;;;20.60;71.60;;;;;;5055036;28;20036;-76
2021/06/29 02:39:04;;;;;;;7.43;4.72;;;20.70;71.00;;;;;;5055120;28;20434;-75
2021/06/29 02:41:30;;;;;;;8.18;5.43;;;20.70;70.80;;;;;;5055289;28;20036;-77
2021/06/29 02:43:56;;;;;;;7.18;5.15;;;20.70;70.80;;;;;;5052472;28;20463;-75
2021/06/29 02:46:22;;;;;;;5.72;5.13;;;20.80;70.70;;;;;;5054772;28;20032;-76
2021/06/29 02:48:47;;;;;;;6.72;5.20;;;20.80;70.60;;;;;;5054802;28;20589;-75
2021/06/29 02:51:13;;;;;;;5.93;5.30;;;20.90;70.40;;;;;;5054954;28;20035;-75
2021/06/29 02:53:39;;;;;;;8.35;5.00;;;21.00;70.30;;;;;;5055658;28;20025;-75
2021/06/29 02:56:05;;;;;;;10.43;5.32;;;21.10;70.10;;;;;;5056154;28;20112;-75
2021/06/29 02:58:31;;;;;;;6.97;5.00;;;21.20;70.10;;;;;;5055644;28;20060;-75
2021/06/29 03:00:56;;;;;;;6.95;4.95;;;21.20;69.90;;;;;;5055117;28;20060;-75
2021/06/29 03:03:22;;;;;;;6.07;5.45;;;21.20;69.80;;;;;;5055576;28;20029;-75
2021/06/29 03:05:48;;;;;;;5.53;4.90;;;21.30;69.80;;;;;;5055817;28;20029;-75
2021/06/29 03:08:14;;;;;;;8.80;5.35;;;21.40;69.80;;;;;;5055898;28;20079;-75
2021/06/29 03:10:39;;;;;;;7.95;5.07;;;21.40;69.70;;;;;;5056062;28;20025;-76
2021/06/29 03:13:05;;;;;;;8.27;5.45;;;21.50;69.60;;;;;;5055821;28;20516;-75
2021/06/29 03:15:31;;;;;;;7.35;4.70;;;21.50;69.40;;;;;;5056008;28;20021;-75
2021/06/29 03:17:57;;;;;;;7.03;5.10;;;21.60;70.00;;;;;;5055020;28;20471;-75
2021/06/29 03:20:22;;;;;;;9.32;6.47;;;21.60;69.30;;;;;;5055660;28;20029;-76
2021/06/29 03:22:48;;;;;;;7.55;5.93;;;21.70;69.30;;;;;;5055640;28;20431;-75
2021/06/29 03:25:14;;;;;;;7.60;5.38;;;21.70;69.30;;;;;;5055396;28;20029;-75
2021/06/29 03:27:40;;;;;;;8.45;5.68;;;21.80;69.40;;;;;;5055154;28;20425;-75
2021/06/29 03:30:08;;;;;;;6.78;5.22;;;21.80;69.40;;;;;;5055534;28;20024;-75
2021/06/29 03:32:34;;;;;;;6.15;5.40;;;21.90;69.40;;;;;;5055656;28;20029;-75
2021/06/29 03:35:00;;;;;;;6.75;5.47;;;21.90;69.30;;;;;;5055160;28;20452;-77
2021/06/29 03:37:25;;;;;;;8.65;5.85;;;22.00;69.30;;;;;;5055045;28;20033;-76
2021/06/29 03:39:51;;;;;;;6.25;5.30;;;22.10;69.10;;;;;;5055239;28;20025;-75
2021/06/29 03:42:17;;;;;;;13.18;6.45;;;22.10;68.90;;;;;;5055282;28;20044;-75
2021/06/29 03:44:43;;;;;;;8.07;5.10;;;22.20;68.90;;;;;;5055456;28;20381;-75
2021/06/29 03:47:08;;;;;;;8.05;5.55;;;22.20;68.70;;;;;;5055243;28;20044;-75
2021/06/29 03:49:34;;;;;;;7.28;5.35;;;22.30;68.50;;;;;;5055051;28;20478;-76
2021/06/29 03:52:01;;;;;;;7.95;5.30;;;22.30;68.30;;;;;;5054954;28;20053;-76
2021/06/29 03:54:26;;;;;;;6.70;5.40;;;22.40;68.30;;;;;;5055682;28;20033;-76
2021/06/29 03:56:52;;;;;;;7.78;5.15;;;22.40;68.20;;;;;;5055001;28;20390;-75
2021/06/29 03:59:18;;;;;;;9.52;5.47;;;22.50;68.20;;;;;;5054769;28;20025;-75
2021/06/29 04:01:44;;;;;;;5.88;5.28;;;22.60;68.00;;;;;;5054563;28;20028;-75
2021/06/29 04:04:10;;;;;;;8.10;4.97;;;22.70;67.80;;;;;;5055065;28;20025;-76
2021/06/29 04:06:37;;;;;;;9.40;5.32;;;22.80;67.60;;;;;;5054794;28;20072;-76
2021/06/29 04:09:08;;;;;;;10.90;5.18;;;22.90;67.30;;;;;;5054789;28;20033;-76
2021/06/29 04:11:34;;;;;;;5.85;5.15;;;23.00;67.10;;;;;;5054662;28;20361;-76
2021/06/29 04:14:00;;;;;;;7.63;5.60;;;23.10;66.90;;;;;;5054722;28;20032;-75
2021/06/29 04:16:26;;;;;;;6.75;5.10;;;23.20;66.70;;;;;;5054587;28;20029;-75
2021/06/29 04:18:52;;;;;;;7.07;5.18;;;23.30;66.60;;;;;;5053394;28;20414;-76
2021/06/29 04:21:18;;;;;;;6.20;5.10;;;23.50;66.30;;;;;;5070004;28;20074;-76
2021/06/29 04:23:44;;;;;;;7.47;5.25;;;23.60;66.00;;;;;;5054080;28;20028;-75
2021/06/29 04:26:16;;;;;;;7.57;5.50;;;23.80;65.80;;;;;;5054463;28;20032;-75
2021/06/29 04:28:42;;;;;;;13.10;6.60;;;24.00;65.50;;;;;;5054371;28;20040;-75
2021/06/29 04:31:08;;;;;;;6.85;5.47;;;24.10;65.20;;;;;;5054165;28;20032;-75
2021/06/29 04:33:34;;;;;;;5.97;5.35;;;24.30;65.00;;;;;;5054003;28;20025;-75
2021/06/29 04:36:00;;;;;;;5.93;4.93;;;24.40;64.70;;;;;;5054488;28;20032;-76
2021/06/29 04:38:26;;;;;;;8.60;5.25;;;24.60;64.40;;;;;;5053383;28;20051;-75
2021/06/29 04:40:51;;;;;;;6.57;5.60;;;24.80;64.20;;;;;;5054099;28;20159;-75
2021/06/29 04:43:17;;;;;;;9.10;5.68;;;24.90;64.00;;;;;;5053992;28;20036;-75
2021/06/29 04:45:42;;;;;;;7.00;5.05;;;25.10;63.60;;;;;;5053631;28;20609;-75
2021/06/29 04:48:09;;;;;;;8.25;5.13;;;25.20;63.20;;;;;;5053876;28;20048;-76
2021/06/29 04:50:35;;;;;;;7.57;5.10;;;25.30;62.70;;;;;;5052828;28;20114;-76
2021/06/29 04:53:00;;;;;;;9.93;5.15;;;25.40;62.40;;;;;;5046867;28;20085;-76
2021/06/29 04:55:26;;;;;;;8.70;5.10;;;25.40;62.00;;;;;;5034302;28;20033;-76
2021/06/29 04:57:52;;;;;;;7.63;5.30;;;25.60;62.00;;;;;;5043364;28;20048;-76
2021/06/29 05:00:19;;;;;;;5.65;5.15;;;25.70;61.90;;;;;;5053490;28;20029;-75
2021/06/29 05:02:45;;;;;;;7.03;5.03;;;25.80;61.50;;;;;;5053145;28;20029;-75
2021/06/29 05:05:11;;;;;;;6.32;4.90;;;25.90;61.20;;;;;;5053238;28;20501;-75
2021/06/29 05:07:38;;;;;;;6.63;5.13;;;26.10;61.10;;;;;;5052991;28;20039;-75
2021/06/29 05:10:06;;;;;;;6.30;5.00;;;26.20;60.50;;;;;;5053320;28;20033;-78
2021/06/29 05:12:32;;;;;;;6.55;5.43;;;26.30;60.10;;;;;;5053519;28;20025;-76
2021/06/29 05:14:57;;;;;;;8.23;4.88;;;26.40;59.80;;;;;;5052932;28;20032;-74
2021/06/29 05:17:23;;;;;;;6.60;5.40;;;26.40;59.80;;;;;;5052924;28;20025;-75
2021/06/29 05:19:49;;;;;;;7.00;4.90;;;26.40;59.70;;;;;;5051892;28;20056;-76
2021/06/29 05:22:15;;;;;;;8.40;5.63;;;26.50;59.70;;;;;;5053040;28;20028;-75
2021/06/29 05:24:40;;;;;;;6.15;5.15;;;26.50;59.30;;;;;;5053074;28;20378;-75
2021/06/29 05:27:07;;;;;;;7.32;5.28;;;26.30;59.20;;;;;;5052908;28;20036;-75
2021/06/29 05:29:32;;;;;;;5.70;5.00;;;26.20;59.40;;;;;;5068290;28;20052;-76
2021/06/29 05:31:58;;;;;;;5.45;4.95;;;26.10;59.50;;;;;;5052911;28;20498;-76
2021/06/29 05:34:24;;;;;;;6.53;5.00;;;26.00;59.50;;;;;;5053498;28;20033;-76
2021/06/29 05:36:49;;;;;;;6.70;5.10;;;25.90;59.50;;;;;;5053087;28;20335;-76
2021/06/29 05:39:17;;;;;;;7.60;5.10;;;25.80;59.70;;;;;;5052669;28;20029;-76
2021/06/29 05:41:43;;;;;;;10.07;5.45;;;25.70;60.00;;;;;;5052879;28;20060;-77
2021/06/29 05:44:09;;;;;;;7.78;5.55;;;25.70;60.10;;;;;;5052914;28;20065;-76
2021/06/29 05:46:35;;;;;;;5.60;4.93;;;25.60;60.40;;;;;;5052443;28;20044;-76
2021/06/29 05:49:03;;;;;;;7.07;5.40;;;25.50;60.60;;;;;;5056327;28;20021;-76
2021/06/29 05:51:29;;;;;;;6.38;5.78;;;25.50;60.90;;;;;;5059630;28;20057;-76
2021/06/29 05:53:55;;;;;;;6.13;5.13;;;25.40;61.00;;;;;;5059643;28;20033;-76
2021/06/29 05:56:20;;;;;;;7.53;5.68;;;25.40;61.10;;;;;;5059671;28;20494;-75
2021/06/29 05:58:46;;;;;;;6.38;5.50;;;25.40;61.00;;;;;;5058092;28;20048;-76
2021/06/29 06:01:12;;;;;;;7.85;5.22;;;25.40;61.20;;;;;;5059385;28;20429;-78
2021/06/29 06:03:37;;;;;;;8.43;5.60;;;25.40;61.30;;;;;;5059817;28;20068;-75
2021/06/29 06:06:03;;;;;;;9.77;5.43;;;25.50;61.20;;;;;;5059311;28;20123;-75
2021/06/29 06:08:29;;;;;;;5.55;5.03;;;25.60;61.20;;;;;;5059875;28;20025;-77
2021/06/29 06:10:55;;;;;;;7.03;5.20;;;25.70;60.80;;;;;;5059539;28;20455;-75
2021/06/29 06:13:21;;;;;;;5.80;5.18;;;25.90;60.70;;;;;;5059203;28;20029;-75
2021/06/29 06:15:47;;;;;;;6.97;5.93;;;26.10;60.60;;;;;;5057888;28;20075;-74
2021/06/29 06:18:13;;;;;;;7.85;5.40;;;26.20;60.40;;;;;;5058068;28;20025;-75
2021/06/29 06:20:39;;;;;;;7.65;5.65;;;26.30;60.10;;;;;;5058345;28;20028;-75
2021/06/29 06:23:05;;;;;;;5.93;5.15;;;26.30;60.10;;;;;;5058380;28;20024;-75
2021/06/29 06:25:33;;;;;;;6.68;5.57;;;26.30;60.30;;;;;;5058035;28;20029;-75
2021/06/29 06:28:00;;;;;;;6.07;5.47;;;26.40;60.20;;;;;;5058124;28;20425;-76
2021/06/29 06:30:25;;;;;;;6.85;5.97;;;26.50;60.40;;;;;;5058214;28;20024;-75
2021/06/29 06:32:51;;;;;;;10.10;6.50;;;26.60;60.10;;;;;;5057825;28;20395;-75
2021/06/29 06:35:17;;;;;;;7.90;5.72;;;26.70;60.00;;;;;;5057987;28;20024;-76
2021/06/29 06:37:43;;;;;;;7.38;5.82;;;26.70;59.90;;;;;;5058243;28;20068;-75
2021/06/29 06:40:10;;;;;;;8.63;5.70;;;26.70;59.80;;;;;;5059291;28;20028;-75
2021/06/29 06:42:36;;;;;;;9.27;6.18;;;26.60;59.80;;;;;;5074502;28;20028;-75
2021/06/29 06:45:03;;;;;;;8.13;5.90;;;26.70;60.10;;;;;;5059345;28;20021;-76
2021/06/29 06:47:29;;;;;;;10.02;5.82;;;26.80;60.10;;;;;;5058495;28;20481;-76
2021/06/29 06:49:55;;;;;;;6.90;6.10;;;26.90;60.10;;;;;;5058458;28;20113;-76
2021/06/29 06:52:20;;;;;;;9.25;6.50;;;27.00;59.90;;;;;;5059002;28;20486;-75
2021/06/29 06:54:46;;;;;;;7.60;5.85;;;27.20;59.80;;;;;;5058856;28;20029;-77
2021/06/29 06:57:12;;;;;;;7.32;5.80;;;27.30;59.40;;;;;;5059007;28;20470;-76
2021/06/29 06:59:38;;;;;;;7.60;5.90;;;27.40;59.30;;;;;;5058230;28;20037;-76
2021/06/29 07:02:05;;;;;;;12.68;6.00;;;27.60;59.20;;;;;;5055519;28;20459;-75
2021/06/29 07:04:31;;;;;;;7.97;5.88;;;27.70;58.90;;;;;;5056018;28;20029;-75
2021/06/29 07:06:56;;;;;;;6.72;5.80;;;27.80;58.40;;;;;;5055871;28;20040;-75
2021/06/29 07:09:22;;;;;;;6.80;5.72;;;27.80;58.40;;;;;;5055562;28;20068;-75
2021/06/29 07:11:51;;;;;;;7.60;5.80;;;27.90;58.20;;;;;;5054700;28;20424;-75
2021/06/29 07:14:17;;;;;;;7.30;6.07;;;27.90;58.20;;;;;;5055110;28;20103;-76
2021/06/29 07:16:43;;;;;;;7.25;5.90;;;28.00;58.40;;;;;;5054940;28;20082;-75
2021/06/29 07:19:09;;;;;;;7.28;6.57;;;28.10;58.50;;;;;;5054625;28;20104;-75
2021/06/29 07:21:38;;;;;;;7.63;5.38;;;28.20;58.00;;;;;;5055134;28;20099;-76
2021/06/29 07:24:05;;;;;;;7.97;5.45;;;28.20;57.10;;;;;;5055484;28;20056;-76
2021/06/29 07:26:31;;;;;;;6.72;5.38;;;28.30;56.80;;;;;;5054777;28;20139;-76
2021/06/29 07:28:57;;;;;;;9.30;5.35;;;28.30;56.70;;;;;;5055113;28;20099;-76
2021/06/29 07:31:23;;;;;;;7.20;5.03;;;28.30;55.80;;;;;;5055370;28;20501;-76
2021/06/29 07:33:49;;;;;;;5.68;4.90;;;28.30;55.70;;;;;;5054974;28;20028;-76
2021/06/29 07:36:16;;;;;;;10.93;4.93;;;28.30;55.70;;;;;;5055056;28;21011;-76
2021/06/29 07:38:45;;;;;;;4.72;4.30;;;28.50;55.30;;;;;;5051452;28;20060;-76
2021/06/29 07:41:13;;;;;;;7.00;4.82;;;28.80;54.50;;;;;;5048118;28;20032;-77
2021/06/29 07:43:39;;;;;;;6.22;4.78;;;29.00;54.60;;;;;;5050264;28;20040;-77
2021/06/29 07:46:05;;;;;;;6.25;5.53;;;29.20;54.80;;;;;;5072137;28;20021;-78
2021/06/29 07:48:31;;;;;;;5.53;4.80;;;29.40;54.20;;;;;;5052497;28;20025;-76
2021/06/29 07:50:57;;;;;;;5.10;4.60;;;29.50;53.60;;;;;;5057203;28;20021;-76
2021/06/29 07:53:22;;;;;;;5.35;4.35;;;29.60;53.40;;;;;;5065014;28;20453;-76
2021/06/29 07:55:51;;;;;;;7.53;4.90;;;29.70;53.20;;;;;;5063242;28;20017;-77
2021/06/29 07:58:17;;;;;;;7.22;5.43;;;29.80;53.30;;;;;;5062422;28;20040;-77
2021/06/29 08:00:44;;;;;;;5.47;4.97;;;29.90;53.40;;;;;;5059125;28;20033;-77
2021/06/29 08:03:10;;;;;;;7.50;4.70;;;30.00;53.30;;;;;;5063148;28;20474;-76
2021/06/29 08:05:36;;;;;;;8.65;4.65;;;30.20;52.90;;;;;;5062478;28;20154;-74
2021/06/29 08:08:01;;;;;;;5.90;4.35;;;30.30;52.90;;;;;;5062315;28;20028;-76
2021/06/29 08:10:27;;;;;;;8.07;4.45;;;30.30;52.10;;;;;;5062372;28;20046;-76
2021/06/29 08:15:28;;;;;;;5.85;4.57;;;30.30;52.30;;;;;;5060332;28;20045;-76
2021/06/29 08:17:53;;;;;;;6.75;4.55;;;30.30;52.40;;;;;;5074825;28;20035;-77
2021/06/29 08:20:20;;;;;;;7.00;4.03;;;30.40;51.90;;;;;;5078467;28;20458;-78
2021/06/29 08:22:47;;;;;;;6.20;4.47;;;30.40;51.70;;;;;;5071746;28;20054;-76
2021/06/29 08:25:13;;;;;;;6.97;4.53;;;30.50;51.60;;;;;;5071808;28;20058;-77
2021/06/29 08:27:39;;;;;;;4.82;4.43;;;30.70;51.40;;;;;;5070517;28;20033;-77
2021/06/29 08:30:10;;;;;;;6.60;4.45;;;30.90;51.40;;;;;;5071463;28;20024;-77
2021/06/29 08:32:38;;;;;;;5.25;3.88;;;31.10;51.30;;;;;;5076066;28;20433;-77
2021/06/29 08:35:09;;;;;;;4.88;4.10;;;31.50;50.90;;;;;;5082905;28;20036;-77
2021/06/29 08:37:35;;;;;;;4.00;3.70;;;31.90;50.60;;;;;;5083529;28;20025;-77
2021/06/29 08:40:03;;;;;;;3.97;3.63;;;32.20;50.10;;;;;;5081887;28;20454;-76
2021/06/29 08:42:33;;;;;;;3.80;3.50;;;32.40;49.50;;;;;;5083221;28;20024;-77
2021/06/29 08:44:59;;;;;;;4.55;3.50;;;32.30;49.00;;;;;;5080896;28;20064;-78
2021/06/29 08:47:25;;;;;;;3.88;3.55;;;32.20;48.70;;;;;;5078835;28;20051;-77
2021/06/29 08:49:51;;;;;;;4.18;3.50;;;32.10;48.80;;;;;;5083275;28;20123;-77
2021/06/29 08:52:17;;;;;;;4.15;3.50;;;32.10;48.80;;;;;;5082965;28;20534;-77
2021/06/29 08:54:43;;;;;;;3.78;2.95;;;32.30;48.90;;;;;;5080924;28;20028;-78
2021/06/29 08:57:09;;;;;;;4.82;3.20;;;32.40;48.10;;;;;;5078721;28;20085;-78
2021/06/29 08:59:35;;;;;;;3.88;3.17;;;32.60;47.70;;;;;;5083823;28;20032;-78
2021/06/29 09:02:02;;;;;;;9.85;3.33;;;32.70;47.30;;;;;;5080255;28;20030;-78
2021/06/29 09:04:47;;;;;;;4.00;3.20;;;32.90;47.20;;;;;;5082843;28;20035;-77
2021/06/29 09:07:16;;;;;;;4.15;3.15;;;33.00;46.80;;;;;;5077547;28;20041;-77
2021/06/29 09:09:56;;;;;;;4.35;3.10;;;33.20;46.10;;;;;;5080514;28;20074;-77
2021/06/29 09:12:50;;;;;;;3.42;3.13;;;33.20;44.80;;;;;;5080870;28;20028;-77
2021/06/29 09:15:29;;;;;;;3.50;3.20;;;33.00;44.90;;;;;;5077288;28;20074;-77
2021/06/29 09:18:17;;;;;;;4.72;3.22;;;33.10;44.60;;;;;;5079527;28;20028;-78
2021/06/29 09:20:58;;;;;;;3.70;2.80;;;33.20;45.20;;;;;;5081504;28;20032;-78
2021/06/29 09:23:49;;;;;;;3.58;3.00;;;33.40;45.20;;;;;;5082964;28;20411;-78
2021/06/29 09:26:23;;;;;;;3.25;2.92;;;33.60;44.50;;;;;;5080601;28;20039;-80
2021/06/29 09:28:53;;;;;;;4.72;2.55;;;33.80;43.60;;;;;;5079222;28;20363;-78
2021/06/29 09:31:22;;;;;;;2.85;2.65;;;34.00;43.70;;;;;;5080302;28;20074;-78
2021/06/29 09:33:56;;;;;;;2.90;2.70;;;34.20;43.10;;;;;;5078235;28;20016;-78
2021/06/29 09:36:25;;;;;;;3.30;2.92;;;34.30;43.10;;;;;;5080862;28;20035;-76
2021/06/29 09:38:52;;;;;;;5.38;3.40;;;34.50;43.00;;;;;;5081715;28;20055;-77
2021/06/29 09:41:28;;;;;;;3.60;3.28;;;34.70;43.10;;;;;;5083652;28;20043;-78
2021/06/29 09:44:05;;;;;;;4.80;3.30;;;34.90;42.80;;;;;;5079986;28;20086;-78
2021/06/29 09:46:31;;;;;;;3.30;3.05;;;35.20;43.10;;;;;;5077968;28;20029;-78
2021/06/29 09:49:14;;;;;;;4.07;3.00;;;35.60;43.10;;;;;;5081032;28;20126;-77
2021/06/29 09:51:51;;;;;;;4.20;3.35;;;35.70;42.70;;;;;;5081717;28;20095;-83
2021/06/29 09:54:17;;;;;;;3.67;3.05;;;35.90;42.90;;;;;;5079629;28;20028;-77
2021/06/29 09:56:46;;;;;;;3.88;3.50;;;36.20;42.60;;;;;;5082470;28;20035;-78
2021/06/29 09:59:17;;;;;;;3.38;3.08;;;36.50;43.10;;;;;;5081607;28;20039;-77
2021/06/29 10:01:44;;;;;;;3.72;3.35;;;36.80;41.60;;;;;;5081780;28;20063;-78
2021/06/29 10:04:10;;;;;;;4.65;2.70;;;37.10;41.10;;;;;;5081103;28;20032;-77
2021/06/29 10:06:38;;;;;;;4.10;3.05;;;37.40;40.70;;;;;;5081560;28;20079;-78
2021/06/29 10:09:05;;;;;;;3.45;3.15;;;37.90;41.00;;;;;;5081397;28;20016;-77
2021/06/29 10:11:37;;;;;;;4.60;3.60;;;38.20;40.80;;;;;;5082614;28;20016;-77
2021/06/29 10:14:12;;;;;;;3.63;3.33;;;38.30;40.30;;;;;;5081959;28;20023;-77
2021/06/29 10:16:46;;;;;;;4.72;3.35;;;38.00;40.40;;;;;;5080810;28;20025;-77
2021/06/29 10:19:17;;;;;;;5.30;3.15;;;38.00;40.50;;;;;;5095940;28;20363;-78
2021/06/29 10:21:48;;;;;;;6.13;3.85;;;38.20;40.40;;;;;;5079072;28;20032;-80
2021/06/29 10:24:17;;;;;;;3.30;3.03;;;38.00;40.00;;;;;;5073130;28;20025;-78
2021/06/29 10:26:45;;;;;;;6.18;3.15;;;37.60;40.20;;;;;;5077920;28;20052;-78
2021/06/29 10:29:12;;;;;;;5.50;3.60;;;37.10;40.50;;;;;;5079352;28;20029;-77
2021/06/29 10:31:41;;;;;;;5.05;3.13;;;36.80;41.20;;;;;;5081191;28;20366;-77
2021/06/29 10:34:09;;;;;;;3.90;3.38;;;36.90;41.60;;;;;;5081529;28;20496;-79
2021/06/29 10:36:39;;;;;;;4.07;3.67;;;37.40;41.30;;;;;;5072351;28;20032;-79
2021/06/29 10:39:07;;;;;;;5.05;3.63;;;37.70;41.00;;;;;;5073788;28;20024;-79
2021/06/29 10:41:41;;;;;;;7.75;3.30;;;38.20;40.90;;;;;;5077920;28;20538;-79
2021/06/29 10:44:15;;;;;;;4.43;3.22;;;38.30;40.60;;;;;;5083161;28;20528;-79
2021/06/29 10:46:47;;;;;;;5.03;3.70;;;38.30;40.20;;;;;;5083032;28;20429;-77
2021/06/29 10:49:33;;;;;;;3.55;3.25;;;37.70;40.20;;;;;;5080939;28;20039;-76
2021/06/29 10:52:22;;;;;;;4.68;3.33;;;36.70;40.80;;;;;;5085302;28;20063;-77
2021/06/29 10:55:09;;;;;;;3.80;3.33;;;35.60;41.70;;;;;;5083216;28;20024;-79
2021/06/29 10:57:47;;;;;;;4.38;3.58;;;34.80;42.80;;;;;;5081332;28;20059;-77
2021/06/29 11:00:15;;;;;;;4.70;3.65;;;33.90;44.00;;;;;;5084907;28;20066;-77
2021/06/29 11:02:42;;;;;;;3.65;3.35;;;33.20;44.70;;;;;;5082981;28;20020;-77
2021/06/29 11:05:09;;;;;;;4.65;3.33;;;32.80;45.10;;;;;;5083355;28;20031;-78
2021/06/29 11:07:46;;;;;;;3.92;3.50;;;32.20;45.30;;;;;;5078311;28;20389;-79
2021/06/29 11:10:26;;;;;;;4.53;3.50;;;31.70;45.90;;;;;;5083015;28;20028;-79
2021/06/29 11:12:53;;;;;;;7.78;4.35;;;31.10;46.00;;;;;;5080489;28;20374;-78
2021/06/29 11:15:43;;;;;;;4.55;3.38;;;30.20;45.40;;;;;;5069254;28;20048;-79
2021/06/29 11:18:11;;;;;;;3.47;3.10;;;29.50;45.90;;;;;;5071243;28;20051;-79
2021/06/29 11:20:48;;;;;;;4.95;3.67;;;29.00;46.60;;;;;;5086320;28;20032;-80
2021/06/29 11:23:18;;;;;;;6.80;4.68;;;28.60;47.30;;;;;;5081044;28;20030;-79
2021/06/29 11:25:53;;;;;;;5.28;2.80;;;28.30;47.70;;;;;;5078111;28;20020;-78
2021/06/29 11:28:35;;;;;;;3.80;3.05;;;28.00;47.90;;;;;;5091521;28;20363;-77
2021/06/29 11:31:01;;;;;;;5.10;3.53;;;27.90;48.70;;;;;;5083539;28;20027;-77
2021/06/29 11:33:43;;;;;;;7.78;3.38;;;27.70;49.40;;;;;;5083339;28;20447;-78
2021/06/29 11:36:30;;;;;;;5.28;3.60;;;27.50;50.10;;;;;;5078054;28;20041;-78
2021/06/29 11:39:15;;;;;;;4.00;3.20;;;27.50;50.50;;;;;;5080302;28;20386;-79
2021/06/29 11:41:57;;;;;;;4.78;3.10;;;27.50;50.90;;;;;;5079742;28;20016;-78
2021/06/29 11:44:24;;;;;;;4.60;3.10;;;27.50;51.10;;;;;;5083088;28;20115;-78
2021/06/29 11:47:09;;;;;;;5.28;3.13;;;27.60;50.90;;;;;;5078665;28;20035;-78
2021/06/29 11:49:45;;;;;;;5.22;3.28;;;27.60;51.00;;;;;;5082981;28;20458;-77
2021/06/29 11:52:14;;;;;;;5.00;3.20;;;27.60;50.40;;;;;;5077792;28;20040;-78
2021/06/29 11:54:45;;;;;;;4.80;3.38;;;27.50;50.10;;;;;;5080820;28;20025;-78
2021/06/29 11:57:39;;;;;;;5.93;3.47;;;27.50;50.00;;;;;;5088309;28;20028;-79
2021/06/29 12:00:27;;;;;;;11.37;4.17;;;27.50;49.80;;;;;;5080839;28;20028;-79
2021/06/29 12:03:03;;;;;;;6.20;3.85;;;27.50;49.90;;;;;;5072253;28;20024;-79
2021/06/29 12:05:32;;;;;;;6.10;3.70;;;27.50;50.00;;;;;;5088030;28;20073;-79
2021/06/29 12:08:02;;;;;;;5.13;3.50;;;27.50;50.20;;;;;;5103358;28;20080;-78
2021/06/29 12:10:31;;;;;;;5.93;3.40;;;27.40;50.30;;;;;;5086745;28;20414;-78
2021/06/29 12:13:06;;;;;;;5.00;3.25;;;27.40;50.70;;;;;;5088035;28;20020;-78
2021/06/29 12:15:35;;;;;;;3.60;3.30;;;27.40;51.10;;;;;;5071698;28;20029;-77
2021/06/29 12:18:10;;;;;;;3.90;3.53;;;27.30;51.40;;;;;;5089568;28;20033;-77
2021/06/29 12:20:56;;;;;;;6.82;3.80;;;27.30;52.00;;;;;;5080679;28;20039;-77
2021/06/29 12:23:27;;;;;;;5.63;3.47;;;27.30;52.50;;;;;;5082165;28;20028;-77
2021/06/29 12:26:04;;;;;;;3.92;3.53;;;27.20;52.90;;;;;;5079983;28;20040;-77
2021/06/29 12:28:34;;;;;;;5.30;3.75;;;27.30;53.40;;;;;;5081690;28;20036;-77
2021/06/29 12:31:14;;;;;;;4.95;3.58;;;27.30;53.80;;;;;;5082923;28;20028;-76
2021/06/29 12:33:46;;;;;;;6.03;3.80;;;27.30;54.20;;;;;;5081785;28;20042;-76
2021/06/29 12:36:22;;;;;;;4.00;3.50;;;27.40;54.30;;;;;;5072543;28;20070;-76
2021/06/29 12:38:53;;;;;;;5.07;3.60;;;27.60;54.50;;;;;;5077779;28;20027;-78
2021/06/29 12:41:25;;;;;;;4.43;3.67;;;27.80;54.60;;;;;;5082757;28;20152;-77
2021/06/29 12:43:58;;;;;;;7.85;4.20;;;28.00;55.20;;;;;;5081795;28;20150;-78
2021/06/29 12:46:27;;;;;;;8.77;4.07;;;28.30;54.80;;;;;;5082203;28;20040;-77
2021/06/29 12:48:55;;;;;;;5.57;3.88;;;28.80;54.20;;;;;;5081169;28;20046;-75
2021/06/29 12:51:21;;;;;;;4.35;3.95;;;29.30;53.40;;;;;;5077493;28;20024;-77
2021/06/29 12:53:56;;;;;;;6.80;3.95;;;30.00;52.40;;;;;;5072509;28;20025;-77
2021/06/29 12:56:30;;;;;;;4.00;3.60;;;30.80;51.20;;;;;;5076865;28;20031;-77
2021/06/29 12:58:57;;;;;;;3.45;3.20;;;31.50;49.80;;;;;;5070013;28;20474;-78
2021/06/29 13:01:22;;;;;;;4.40;3.17;;;31.90;48.80;;;;;;5072469;28;20379;-75